Marchicora — V2OQ7 — position and weather

sailwx.info

Track history (hours):
 
Tides and Currents Weather Stations Pressure Air Temp Water Temp Dewpoint Dewpoint Depression Visibility Wind Speed Wind Dir Waves Ship Positions

Marchicora

Last reported at 2016-Apr-21 04:21 UTC. Time now 2016-May-06 03:37 UTC.
Position N 55°45' E 015°48'.
Warning: this ship's position is 14 days out of date.

Length 153 m; draft 9.8 m.

Type: Cargo ship. MMSI: 304653000.

Date/timePositionNaut miles runAvg speedWind from/ knotsBaromVisibWave heightAir tempDewpointWater temp
2016-Apr-21 04:21N 55°45' E 015°48'1213.1
2016-Apr-21 03:28N 55°40' E 015°30'1213.2
2016-Apr-21 02:33N 55°34' E 015°11'1312.9
2016-Apr-21 01:34N 55°28' E 014°51'1312.9
2016-Apr-21 00:33N 55°20' E 014°34'1312.6
2016-Apr-20 23:34N 55°10' E 014°20'1312.8
2016-Apr-20 22:33N 55°00' E 014°05'1313.1
2016-Apr-20 21:33N 54°56' E 013°43'1312.8
2016-Apr-20 20:33N 54°52' E 013°22'2612.9
2016-Apr-20 18:33N 54°43' E 012°40'1713.2
2016-Apr-20 17:16N 54°32' E 012°18'7 9.8
2016-Apr-20 16:33N 54°26' E 012°11'1211.6
2016-Apr-20 15:33N 54°25' E 011°52'1413.9
2016-Apr-20 14:34N 54°30' E 011°29'1514.9
2016-Apr-20 13:33N 54°37' E 011°07'1312.8
2016-Apr-20 12:33N 54°46' E 010°51'1413.8
2016-Apr-20 11:33N 54°59' E 010°60'1414.1
2016-Apr-20 10:34N 55°13' E 011°06'5112.8
2016-Apr-20 06:33N 56°04' E 011°06'4013.1
2016-Apr-20 03:32N 56°37' E 011°44'1212.1
2016-Apr-20 02:33N 56°49' E 011°50'1313.3
2016-Apr-20 01:33N 57°01' E 011°41'1313.4
2016-Apr-20 00:33N 57°14' E 011°33'1313.3
2016-Apr-19 23:33N 57°26' E 011°25'1312.9
2016-Apr-19 22:33N 57°34' E 011°05'1313.1
2016-Apr-19 21:33N 57°40' E 010°44'1 1.1
2016-Apr-19 20:33N 57°41' E 010°43'0 0.0
2016-Apr-19 19:33N 57°41' E 010°43'0 0.0
2016-Apr-19 18:33N 57°41' E 010°43'0 0.4
2016-Apr-19 17:33N 57°41' E 010°43'8 8.1
2016-Apr-19 16:33N 57°48' E 010°35'1514.7
2016-Apr-19 15:33N 57°46' E 010°08'1413.9
2016-Apr-19 14:33N 57°45' E 009°42'24711.2
2016-Apr-18 16:30N 54°30' E 005°11'1212.9
2016-Apr-18 15:33N 54°19' E 004°60'1312.9
2016-Apr-18 14:33N 54°09' E 004°47'1312.6
2016-Apr-18 13:33N 53°58' E 004°36'16112.2
2016-Apr-18 00:20N 51°38' E 002°26'1214.3
2016-Apr-17 23:31N 51°29' E 002°15'1414.5
2016-Apr-17 22:34N 51°16' E 002°07'1514.6
2016-Apr-17 21:34N 51°07' E 001°47'1515.3
2016-Apr-17 20:33N 50°57' E 001°30'5312.9
2016-Apr-17 16:28N 50°24' E 000°24'1313.7
2016-Apr-17 15:32N 50°21' E 000°05'1313.1
2016-Apr-17 14:33N 50°17' W 000°14'1212.4
2016-Apr-17 13:33N 50°14' W 000°33'10812.0
2016-Apr-17 04:33N 49°42' W 003°14'9213.2
2016-Apr-16 21:33N 48°56' W 005°16'1212.4
2016-Apr-16 20:33N 48°50' W 005°33'59312.3
2016-Apr-14 20:23N 39°26' W 009°51'1113.3
2016-Apr-14 19:33N 39°15' W 009°52'1312.9
2016-Apr-14 18:33N 39°02' W 009°52'1312.8
2016-Apr-14 17:33N 38°49' W 009°52'1312.7
2016-Apr-14 16:33N 38°37' W 009°50'1212.3
2016-Apr-14 15:33N 38°25' W 009°47'1211.9
2016-Apr-14 14:33N 38°13' W 009°43'1212.1
2016-Apr-14 13:33N 38°01' W 009°40'1212.0
2016-Apr-14 12:33N 37°50' W 009°36'1211.8
2016-Apr-14 11:33N 37°38' W 009°33'1312.5
2016-Apr-14 10:29N 37°25' W 009°29'20811.5
2016-Apr-13 16:19N 35°58' W 005°34'810.7
2016-Apr-13 15:33N 36°02' W 005°25'4 4.2
2016-Apr-13 14:33N 36°06' W 005°25'0 0.0
2016-Apr-13 13:33N 36°06' W 005°25'0 0.0
2016-Apr-13 12:25N 36°06' W 005°25'1 0.8
2016-Apr-13 11:33N 36°05' W 005°24'10 9.5
2016-Apr-13 10:33N 36°03' W 005°13'21412.5
2016-Apr-12 17:28N 36°39' W 000°51'1212.8
2016-Apr-12 16:33N 36°42' W 000°36'5312.9
2016-Apr-12 12:29N 36°52' E 000°28'1212.9
2016-Apr-12 11:33N 36°54' E 000°43'1212.4
2016-Apr-12 10:33N 36°57' E 000°58'7412.1
2016-Apr-12 04:26N 37°11' E 002°28'1112.9
2016-Apr-12 03:33N 37°14' E 002°42'10512.7
2016-Apr-11 19:19N 37°33' E 004°52'1012.3
2016-Apr-11 18:33N 37°34' E 005°04'1212.5
2016-Apr-11 17:33N 37°35' E 005°20'  
Track history (hours):
 
Tides and Currents Weather Stations Pressure Air Temp Water Temp Dewpoint Dewpoint Depression Visibility Wind Speed Wind Dir Waves Ship Positions

Marchicora

Last reported at 2016-Apr-21 04:21 UTC. Time now 2016-May-06 03:37 UTC.
Position N 55°45' E 015°48'.
Warning: this ship's position is 14 days out of date.

Length 153 m; draft 9.8 m.

Type: Cargo ship. MMSI: 304653000.

Date/timePositionNaut miles runAvg speedWind from/ knotsBaromVisibWave heightAir tempDewpointWater temp
2016-Apr-21 04:21N 55°45' E 015°48'1213.1
2016-Apr-21 03:28N 55°40' E 015°30'1213.2
2016-Apr-21 02:33N 55°34' E 015°11'1312.9
2016-Apr-21 01:34N 55°28' E 014°51'1312.9
2016-Apr-21 00:33N 55°20' E 014°34'1312.6
2016-Apr-20 23:34N 55°10' E 014°20'1312.8
2016-Apr-20 22:33N 55°00' E 014°05'1313.1
2016-Apr-20 21:33N 54°56' E 013°43'1312.8
2016-Apr-20 20:33N 54°52' E 013°22'2612.9
2016-Apr-20 18:33N 54°43' E 012°40'1713.2
2016-Apr-20 17:16N 54°32' E 012°18'7 9.8
2016-Apr-20 16:33N 54°26' E 012°11'1211.6
2016-Apr-20 15:33N 54°25' E 011°52'1413.9
2016-Apr-20 14:34N 54°30' E 011°29'1514.9
2016-Apr-20 13:33N 54°37' E 011°07'1312.8
2016-Apr-20 12:33N 54°46' E 010°51'1413.8
2016-Apr-20 11:33N 54°59' E 010°60'1414.1
2016-Apr-20 10:34N 55°13' E 011°06'5112.8
2016-Apr-20 06:33N 56°04' E 011°06'4013.1
2016-Apr-20 03:32N 56°37' E 011°44'1212.1
2016-Apr-20 02:33N 56°49' E 011°50'1313.3
2016-Apr-20 01:33N 57°01' E 011°41'1313.4
2016-Apr-20 00:33N 57°14' E 011°33'1313.3
2016-Apr-19 23:33N 57°26' E 011°25'1312.9
2016-Apr-19 22:33N 57°34' E 011°05'1313.1
2016-Apr-19 21:33N 57°40' E 010°44'1 1.1
2016-Apr-19 20:33N 57°41' E 010°43'0 0.0
2016-Apr-19 19:33N 57°41' E 010°43'0 0.0
2016-Apr-19 18:33N 57°41' E 010°43'0 0.4
2016-Apr-19 17:33N 57°41' E 010°43'8 8.1
2016-Apr-19 16:33N 57°48' E 010°35'1514.7
2016-Apr-19 15:33N 57°46' E 010°08'1413.9
2016-Apr-19 14:33N 57°45' E 009°42'24711.2
2016-Apr-18 16:30N 54°30' E 005°11'1212.9
2016-Apr-18 15:33N 54°19' E 004°60'1312.9
2016-Apr-18 14:33N 54°09' E 004°47'1312.6
2016-Apr-18 13:33N 53°58' E 004°36'16112.2
2016-Apr-18 00:20N 51°38' E 002°26'1214.3
2016-Apr-17 23:31N 51°29' E 002°15'1414.5
2016-Apr-17 22:34N 51°16' E 002°07'1514.6
2016-Apr-17 21:34N 51°07' E 001°47'1515.3
2016-Apr-17 20:33N 50°57' E 001°30'5312.9
2016-Apr-17 16:28N 50°24' E 000°24'1313.7
2016-Apr-17 15:32N 50°21' E 000°05'1313.1
2016-Apr-17 14:33N 50°17' W 000°14'1212.4
2016-Apr-17 13:33N 50°14' W 000°33'10812.0
2016-Apr-17 04:33N 49°42' W 003°14'9213.2
2016-Apr-16 21:33N 48°56' W 005°16'1212.4
2016-Apr-16 20:33N 48°50' W 005°33'59312.3
2016-Apr-14 20:23N 39°26' W 009°51'1113.3
2016-Apr-14 19:33N 39°15' W 009°52'1312.9
2016-Apr-14 18:33N 39°02' W 009°52'1312.8
2016-Apr-14 17:33N 38°49' W 009°52'1312.7
2016-Apr-14 16:33N 38°37' W 009°50'1212.3
2016-Apr-14 15:33N 38°25' W 009°47'1211.9
2016-Apr-14 14:33N 38°13' W 009°43'1212.1
2016-Apr-14 13:33N 38°01' W 009°40'1212.0
2016-Apr-14 12:33N 37°50' W 009°36'1211.8
2016-Apr-14 11:33N 37°38' W 009°33'1312.5
2016-Apr-14 10:29N 37°25' W 009°29'20811.5
2016-Apr-13 16:19N 35°58' W 005°34'810.7
2016-Apr-13 15:33N 36°02' W 005°25'4 4.2
2016-Apr-13 14:33N 36°06' W 005°25'0 0.0
2016-Apr-13 13:33N 36°06' W 005°25'0 0.0
2016-Apr-13 12:25N 36°06' W 005°25'1 0.8
2016-Apr-13 11:33N 36°05' W 005°24'10 9.5
2016-Apr-13 10:33N 36°03' W 005°13'21412.5
2016-Apr-12 17:28N 36°39' W 000°51'1212.8
2016-Apr-12 16:33N 36°42' W 000°36'5312.9
2016-Apr-12 12:29N 36°52' E 000°28'1212.9
2016-Apr-12 11:33N 36°54' E 000°43'1212.4
2016-Apr-12 10:33N 36°57' E 000°58'7412.1
2016-Apr-12 04:26N 37°11' E 002°28'1112.9
2016-Apr-12 03:33N 37°14' E 002°42'10512.7
2016-Apr-11 19:19N 37°33' E 004°52'1012.3
2016-Apr-11 18:33N 37°34' E 005°04'1212.5
2016-Apr-11 17:33N 37°35' E 005°20'  

Dump ship's entire track history